Galveston, Indiana
Current Conditions -  °F | °C
As of 5:58 AM on Wednesday 22 Oct 2014 (Local Time) from KGUS Reporting Station
Clear Clear  
Wind Chill: 35°   Ceiling: Unl
Heat Index: 38°   Visibility: 10mi
Dew Point: 38°   Wind: 5mph
Humidity: 100%   Direction: 340°NNW
Pressure: 30.29"   Gusts: NA
Location:  40.58°N, 86.19°W
Report Text: KGUS 220958Z AUTO 34004KT 10SM CLR 03/03 A3029 RMK AO2 SLP264 T00340034
Loading
Personal Weather Stations






























Interactive Weather Map
Tropical Storm Tracking
New forecast layout! Learn more

10-Day Weather Forecast

Advertisements
Track Severe Weather on mobile